SIA946 WSSS-WADD
Flight info
| Callsign | SIA946 |
|---|---|
| Flight time | 2h 27m |
| Altitude | 39000 |
| Route | IDBUD1B IDBUD T24 SURGA M635 UDONO |
| Aircraft | B772/H-SDE2E3FGHIJ5LORVWXY/LB1D1 |
Departure
| Time | 2026-05-04 09:14 |
|---|---|
| Airport | Singapore Changi Airport (WSSS) |
Arrival
| Time | 2026-05-04 11:41 |
|---|---|
| Airport | Denpasar I Gusti Ngurah Rai International Airport (WADD) |
| Time | Latitude | Longitude | Altitude | Speed | Heading |
|---|---|---|---|---|---|
| 2026-05-04 08:31 | 1.35230 | 103.98373 | 47 ft | 0 kts | 112° |
| 2026-05-04 09:01 | 1.35303 | 103.98308 | 48 ft | 0 kts | 203° |
| 2026-05-04 09:03 | 1.35297 | 103.98306 | 48 ft | 2 kts | 203° |
| 2026-05-04 09:03 | 1.35273 | 103.98296 | 48 ft | 5 kts | 203° |
| 2026-05-04 09:04 | 1.35232 | 103.98279 | 48 ft | 7 kts | 203° |
| 2026-05-04 09:04 | 1.35175 | 103.98255 | 48 ft | 10 kts | 203° |
| 2026-05-04 09:04 | 1.35124 | 103.98207 | 48 ft | 11 kts | 245° |
| 2026-05-04 09:04 | 1.35087 | 103.98130 | 48 ft | 13 kts | 232° |
| 2026-05-04 09:05 | 1.35001 | 103.98085 | 48 ft | 14 kts | 201° |
| 2026-05-04 09:05 | 1.34900 | 103.98040 | 48 ft | 16 kts | 204° |
| 2026-05-04 09:05 | 1.34794 | 103.98052 | 48 ft | 17 kts | 127° |
| 2026-05-04 09:05 | 1.34747 | 103.98158 | 48 ft | 10 kts | 113° |
| 2026-05-04 09:06 | 1.34724 | 103.98212 | 48 ft | 7 kts | 113° |
| 2026-05-04 09:07 | 1.34385 | 103.98931 | 48 ft | 13 kts | 171° |
| 2026-05-04 09:08 | 1.34289 | 103.98901 | 48 ft | 15 kts | 203° |
| 2026-05-04 09:08 | 1.34186 | 103.98857 | 48 ft | 16 kts | 204° |
| 2026-05-04 09:08 | 1.34074 | 103.98808 | 48 ft | 18 kts | 202° |
| 2026-05-04 09:08 | 1.33951 | 103.98757 | 48 ft | 19 kts | 202° |
| 2026-05-04 09:09 | 1.33824 | 103.98705 | 48 ft | 20 kts | 202° |
| 2026-05-04 09:09 | 1.33711 | 103.98657 | 48 ft | 15 kts | 204° |
| 2026-05-04 09:09 | 1.33604 | 103.98612 | 48 ft | 17 kts | 203° |
| 2026-05-04 09:09 | 1.33487 | 103.98562 | 48 ft | 18 kts | 202° |
| 2026-05-04 09:10 | 1.33371 | 103.98515 | 48 ft | 14 kts | 201° |
| 2026-05-04 09:10 | 1.33280 | 103.98476 | 48 ft | 14 kts | 204° |
| 2026-05-04 09:10 | 1.33182 | 103.98431 | 48 ft | 15 kts | 205° |
| 2026-05-04 09:10 | 1.33072 | 103.98383 | 48 ft | 17 kts | 201° |
| 2026-05-04 09:11 | 1.32952 | 103.98336 | 48 ft | 18 kts | 201° |
| 2026-05-04 09:11 | 1.32881 | 103.98311 | 47 ft | 10 kts | 191° |
| 2026-05-04 09:11 | 1.32826 | 103.98358 | 48 ft | 12 kts | 95° |
| 2026-05-04 09:11 | 1.32847 | 103.98449 | 48 ft | 13 kts | 68° |
| 2026-05-04 09:12 | 1.32916 | 103.98518 | 48 ft | 6 kts | 24° |
| 2026-05-04 09:12 | 1.32925 | 103.98522 | 48 ft | 0 kts | 23° |
| 2026-05-04 09:14 | 1.35866 | 103.99737 | 1407 ft | 182 kts | 22° |
| 2026-05-04 09:14 | 1.37018 | 104.00205 | 2261 ft | 197 kts | 23° |
| 2026-05-04 09:14 | 1.38300 | 104.00766 | 3109 ft | 196 kts | 24° |
| 2026-05-04 09:14 | 1.39623 | 104.01345 | 3387 ft | 213 kts | 23° |
| 2026-05-04 09:15 | 1.41043 | 104.01949 | 3633 ft | 231 kts | 23° |
| 2026-05-04 09:15 | 1.42576 | 104.02596 | 3982 ft | 247 kts | 23° |
| 2026-05-04 09:15 | 1.44235 | 104.03297 | 4344 ft | 262 kts | 23° |
| 2026-05-04 09:15 | 1.45871 | 104.04119 | 4919 ft | 267 kts | 37° |
| 2026-05-04 09:17 | 1.43238 | 104.18342 | 8955 ft | 294 kts | 114° |
| 2026-05-04 09:18 | 1.42365 | 104.20229 | 8953 ft | 292 kts | 113° |
| 2026-05-04 09:18 | 1.41289 | 104.22171 | 8966 ft | 294 kts | 129° |
| 2026-05-04 09:18 | 1.39708 | 104.23605 | 8967 ft | 296 kts | 140° |
| 2026-05-04 09:18 | 1.38095 | 104.24887 | 8956 ft | 295 kts | 140° |
| 2026-05-04 09:19 | 1.36483 | 104.26160 | 8954 ft | 295 kts | 140° |
| 2026-05-04 09:19 | 1.34865 | 104.27436 | 8959 ft | 295 kts | 141° |
| 2026-05-04 09:19 | 1.33230 | 104.28726 | 8973 ft | 296 kts | 140° |
| 2026-05-04 09:19 | 1.31614 | 104.30002 | 8967 ft | 295 kts | 140° |
| 2026-05-04 09:20 | 1.29991 | 104.31282 | 8955 ft | 295 kts | 141° |
| 2026-05-04 09:20 | 1.28374 | 104.32558 | 8962 ft | 296 kts | 141° |
| 2026-05-04 09:20 | 1.26731 | 104.33855 | 8942 ft | 295 kts | 141° |
| 2026-05-04 09:20 | 1.25116 | 104.35129 | 8955 ft | 296 kts | 141° |
| 2026-05-04 09:21 | 1.23493 | 104.36410 | 8966 ft | 296 kts | 141° |
| 2026-05-04 09:21 | 1.21875 | 104.37686 | 8964 ft | 295 kts | 141° |
| 2026-05-04 09:21 | 1.20242 | 104.38974 | 8942 ft | 294 kts | 141° |
| 2026-05-04 09:21 | 1.18625 | 104.40250 | 8961 ft | 295 kts | 141° |
| 2026-05-04 09:22 | 1.17010 | 104.41524 | 8959 ft | 295 kts | 141° |
| 2026-05-04 09:22 | 1.15395 | 104.42798 | 8954 ft | 294 kts | 141° |
| 2026-05-04 09:22 | 1.13758 | 104.44089 | 8938 ft | 295 kts | 141° |
| 2026-05-04 09:22 | 1.12141 | 104.45361 | 8957 ft | 295 kts | 142° |
| 2026-05-04 09:23 | 1.10182 | 104.46358 | 8956 ft | 301 kts | 161° |
| 2026-05-04 09:23 | 1.08162 | 104.46964 | 9532 ft | 302 kts | 164° |
| 2026-05-04 09:23 | 1.06138 | 104.47523 | 10207 ft | 301 kts | 164° |
| 2026-05-04 09:23 | 1.04027 | 104.48106 | 10492 ft | 317 kts | 164° |
| 2026-05-04 09:25 | 0.86138 | 104.53075 | 12996 ft | 394 kts | 163° |
| 2026-05-04 09:25 | 0.83476 | 104.53815 | 13593 ft | 398 kts | 163° |
| 2026-05-04 09:26 | 0.80774 | 104.54565 | 14204 ft | 402 kts | 163° |
| 2026-05-04 09:26 | 0.78050 | 104.55322 | 14895 ft | 405 kts | 163° |
| 2026-05-04 09:26 | 0.75213 | 104.56111 | 15597 ft | 409 kts | 163° |
| 2026-05-04 09:26 | 0.72373 | 104.56900 | 16320 ft | 413 kts | 162° |
| 2026-05-04 09:27 | 0.69540 | 104.57687 | 16997 ft | 417 kts | 162° |
| 2026-05-04 09:27 | 0.66683 | 104.58481 | 17645 ft | 421 kts | 162° |
| 2026-05-04 09:27 | 0.63778 | 104.59313 | 18282 ft | 425 kts | 161° |
| 2026-05-04 09:27 | 0.60824 | 104.60195 | 18896 ft | 430 kts | 161° |
| 2026-05-04 09:28 | 0.57774 | 104.61108 | 19491 ft | 435 kts | 161° |
| 2026-05-04 09:28 | 0.54689 | 104.62029 | 20072 ft | 440 kts | 161° |
| 2026-05-04 09:28 | 0.51739 | 104.63073 | 20653 ft | 442 kts | 154° |
| 2026-05-04 09:28 | 0.49038 | 104.64572 | 21199 ft | 444 kts | 144° |
| 2026-05-04 09:29 | 0.46625 | 104.66507 | 21740 ft | 446 kts | 134° |
| 2026-05-04 09:29 | 0.44548 | 104.68839 | 22277 ft | 448 kts | 125° |
| 2026-05-04 09:29 | 0.42864 | 104.71461 | 22864 ft | 449 kts | 118° |
| 2026-05-04 09:29 | 0.41264 | 104.74241 | 23476 ft | 451 kts | 118° |
| 2026-05-04 09:30 | 0.39669 | 104.77026 | 24049 ft | 455 kts | 118° |
| 2026-05-04 09:30 | 0.38048 | 104.79847 | 24582 ft | 459 kts | 118° |
| 2026-05-04 09:30 | 0.36426 | 104.82667 | 25122 ft | 462 kts | 118° |
| 2026-05-04 09:30 | 0.34804 | 104.85481 | 25631 ft | 466 kts | 119° |
| 2026-05-04 09:31 | 0.33165 | 104.88323 | 26135 ft | 469 kts | 119° |
| 2026-05-04 09:31 | 0.31481 | 104.91240 | 26656 ft | 472 kts | 119° |
| 2026-05-04 09:31 | 0.29828 | 104.94102 | 27176 ft | 475 kts | 119° |
| 2026-05-04 09:31 | 0.28167 | 104.96979 | 27624 ft | 479 kts | 119° |
| 2026-05-04 09:32 | 0.26487 | 104.99886 | 28086 ft | 482 kts | 119° |
| 2026-05-04 09:32 | 0.24779 | 105.02843 | 28539 ft | 485 kts | 119° |
| 2026-05-04 09:34 | 0.12887 | 105.23408 | 32581 ft | 480 kts | 119° |
| 2026-05-04 09:34 | 0.11177 | 105.26365 | 33164 ft | 480 kts | 119° |
| 2026-05-04 09:34 | 0.09504 | 105.29259 | 33794 ft | 478 kts | 119° |
| 2026-05-04 09:34 | 0.07845 | 105.32127 | 34505 ft | 475 kts | 119° |
| 2026-05-04 09:35 | 0.06188 | 105.34992 | 35256 ft | 471 kts | 119° |
| 2026-05-04 09:35 | 0.02999 | 105.40506 | 36408 ft | 467 kts | 119° |
| 2026-05-04 09:35 | 0.01351 | 105.43356 | 36830 ft | 467 kts | 119° |
| 2026-05-04 09:37 | -0.10449 | 105.63761 | 38828 ft | 466 kts | 119° |
| 2026-05-04 09:37 | -0.12160 | 105.66720 | 38837 ft | 465 kts | 119° |
| 2026-05-04 09:38 | -0.15547 | 105.72577 | 38843 ft | 466 kts | 119° |
| 2026-05-04 09:38 | -0.18958 | 105.78476 | 38844 ft | 466 kts | 119° |
| 2026-05-04 09:39 | -0.22344 | 105.84332 | 38842 ft | 467 kts | 119° |
| 2026-05-04 09:39 | -0.25668 | 105.90079 | 38831 ft | 466 kts | 119° |
| 2026-05-04 09:40 | -0.29047 | 105.95922 | 38826 ft | 465 kts | 118° |
| 2026-05-04 09:40 | -0.32470 | 106.01843 | 38826 ft | 468 kts | 119° |
| 2026-05-04 09:42 | -0.46004 | 106.25248 | 38827 ft | 467 kts | 119° |
| 2026-05-04 09:43 | -0.49487 | 106.31271 | 38826 ft | 467 kts | 119° |
| 2026-05-04 09:43 | -0.53020 | 106.37383 | 38826 ft | 469 kts | 119° |
| 2026-05-04 09:44 | -0.56508 | 106.43416 | 38826 ft | 468 kts | 119° |
| 2026-05-04 09:46 | -0.73887 | 106.66068 | 38842 ft | 469 kts | 130° |
| 2026-05-04 09:46 | -0.78608 | 106.71387 | 38845 ft | 469 kts | 130° |
| 2026-05-04 09:47 | -0.83349 | 106.76730 | 38848 ft | 470 kts | 130° |
| 2026-05-04 09:49 | -1.02217 | 106.98001 | 38827 ft | 468 kts | 130° |
| 2026-05-04 09:51 | -1.18314 | 107.16152 | 38827 ft | 468 kts | 130° |
| 2026-05-04 09:51 | -1.22890 | 107.21312 | 38833 ft | 469 kts | 130° |
| 2026-05-04 09:52 | -1.27404 | 107.26403 | 38844 ft | 467 kts | 130° |
| 2026-05-04 09:52 | -1.31823 | 107.31387 | 38846 ft | 467 kts | 130° |
| 2026-05-04 09:53 | -1.36338 | 107.36479 | 38846 ft | 468 kts | 130° |
| 2026-05-04 09:53 | -1.40767 | 107.41577 | 38846 ft | 467 kts | 129° |
| 2026-05-04 09:54 | -1.45179 | 107.46699 | 38845 ft | 466 kts | 129° |
| 2026-05-04 09:54 | -1.49620 | 107.51849 | 38845 ft | 466 kts | 129° |
| 2026-05-04 09:55 | -1.54110 | 107.57056 | 38845 ft | 466 kts | 129° |
| 2026-05-04 09:55 | -1.58476 | 107.62116 | 38835 ft | 467 kts | 129° |
| 2026-05-04 09:56 | -1.62627 | 107.66926 | 38830 ft | 467 kts | 129° |
| 2026-05-04 09:56 | -1.66959 | 107.71948 | 38829 ft | 466 kts | 129° |
| 2026-05-04 09:57 | -1.71321 | 107.77004 | 38827 ft | 465 kts | 129° |
| 2026-05-04 09:57 | -1.75590 | 107.81952 | 38827 ft | 467 kts | 129° |
| 2026-05-04 09:58 | -1.79921 | 107.86973 | 38827 ft | 466 kts | 129° |
| 2026-05-04 09:58 | -1.84191 | 107.91923 | 38827 ft | 466 kts | 129° |
| 2026-05-04 10:00 | -2.01711 | 108.12239 | 38848 ft | 467 kts | 129° |
| 2026-05-04 10:04 | -2.32511 | 108.47945 | 38845 ft | 467 kts | 129° |
| 2026-05-04 10:04 | -2.36960 | 108.53104 | 38846 ft | 467 kts | 129° |
| 2026-05-04 10:05 | -2.41422 | 108.58278 | 38845 ft | 466 kts | 129° |
| 2026-05-04 10:05 | -2.45784 | 108.63338 | 38846 ft | 467 kts | 130° |
| 2026-05-04 10:06 | -2.50183 | 108.68437 | 38844 ft | 467 kts | 130° |
| 2026-05-04 10:06 | -2.54586 | 108.73525 | 38838 ft | 468 kts | 130° |
| 2026-05-04 10:08 | -2.69573 | 108.90848 | 38836 ft | 467 kts | 130° |
| 2026-05-04 10:08 | -2.73880 | 108.95829 | 38841 ft | 466 kts | 130° |
| 2026-05-04 10:09 | -2.78155 | 109.00773 | 38846 ft | 467 kts | 130° |
| 2026-05-04 10:09 | -2.82454 | 109.05745 | 38848 ft | 467 kts | 130° |
| 2026-05-04 10:10 | -2.86698 | 109.10654 | 38847 ft | 466 kts | 130° |
| 2026-05-04 10:10 | -2.90990 | 109.15625 | 38848 ft | 467 kts | 130° |
| 2026-05-04 10:11 | -2.95239 | 109.20561 | 38848 ft | 468 kts | 129° |
| 2026-05-04 10:11 | -2.99578 | 109.25602 | 38848 ft | 467 kts | 129° |
| 2026-05-04 10:12 | -3.03853 | 109.30571 | 38846 ft | 467 kts | 129° |
| 2026-05-04 10:12 | -3.08212 | 109.35636 | 38846 ft | 467 kts | 129° |
| 2026-05-04 10:13 | -3.12517 | 109.40640 | 38846 ft | 467 kts | 130° |
| 2026-05-04 10:13 | -3.16880 | 109.45712 | 38846 ft | 468 kts | 130° |
| 2026-05-04 10:14 | -3.21272 | 109.50818 | 38846 ft | 469 kts | 129° |
| 2026-05-04 10:16 | -3.38466 | 109.70815 | 38848 ft | 468 kts | 130° |
| 2026-05-04 10:16 | -3.42580 | 109.75601 | 38850 ft | 469 kts | 130° |
| 2026-05-04 10:17 | -3.46597 | 109.80275 | 38852 ft | 468 kts | 130° |
| 2026-05-04 10:19 | -3.63542 | 109.99999 | 38852 ft | 470 kts | 130° |
| 2026-05-04 10:19 | -3.67901 | 110.05075 | 38848 ft | 470 kts | 130° |
| 2026-05-04 10:20 | -3.72217 | 110.10101 | 38848 ft | 469 kts | 130° |
| 2026-05-04 10:20 | -3.76566 | 110.15167 | 38848 ft | 468 kts | 130° |
| 2026-05-04 10:21 | -3.80855 | 110.20164 | 38847 ft | 469 kts | 130° |
| 2026-05-04 10:21 | -3.85261 | 110.25297 | 38847 ft | 469 kts | 130° |
| 2026-05-04 10:22 | -3.92615 | 110.33869 | 38847 ft | 471 kts | 130° |
| 2026-05-04 10:23 | -3.96966 | 110.38943 | 38846 ft | 472 kts | 129° |
| 2026-05-04 10:25 | -4.13567 | 110.60496 | 38846 ft | 470 kts | 127° |
| 2026-05-04 10:25 | -4.17584 | 110.65708 | 38847 ft | 470 kts | 127° |
| 2026-05-04 10:26 | -4.21647 | 110.70977 | 38848 ft | 470 kts | 127° |
| 2026-05-04 10:26 | -4.25754 | 110.76301 | 38849 ft | 470 kts | 127° |
| 2026-05-04 10:27 | -4.29910 | 110.81690 | 38848 ft | 471 kts | 127° |
| 2026-05-04 10:27 | -4.34164 | 110.87208 | 38849 ft | 470 kts | 127° |
| 2026-05-04 10:28 | -4.38399 | 110.92701 | 38848 ft | 471 kts | 127° |
| 2026-05-04 10:28 | -4.42575 | 110.98119 | 38847 ft | 471 kts | 127° |
| 2026-05-04 10:29 | -4.46596 | 111.03335 | 38847 ft | 471 kts | 127° |
| 2026-05-04 10:29 | -4.50735 | 111.08708 | 38853 ft | 471 kts | 127° |
| 2026-05-04 10:30 | -4.55023 | 111.14274 | 38863 ft | 471 kts | 127° |
| 2026-05-04 10:30 | -4.59548 | 111.20149 | 38868 ft | 472 kts | 127° |
| 2026-05-04 10:31 | -4.64062 | 111.25997 | 38866 ft | 472 kts | 127° |
| 2026-05-04 10:32 | -4.79786 | 111.46284 | 38847 ft | 472 kts | 127° |
| 2026-05-04 10:33 | -4.84149 | 111.51918 | 38845 ft | 473 kts | 127° |
| 2026-05-04 10:33 | -4.87796 | 111.56627 | 38844 ft | 474 kts | 127° |
| 2026-05-04 10:34 | -4.92655 | 111.62903 | 38846 ft | 473 kts | 127° |
| 2026-05-04 10:34 | -4.96820 | 111.68285 | 38846 ft | 474 kts | 127° |
| 2026-05-04 10:35 | -5.00954 | 111.73628 | 38852 ft | 473 kts | 127° |
| 2026-05-04 10:35 | -5.05125 | 111.79021 | 38850 ft | 474 kts | 127° |
| 2026-05-04 10:36 | -5.09207 | 111.84299 | 38861 ft | 475 kts | 126° |
| 2026-05-04 10:36 | -5.12766 | 111.88902 | 38867 ft | 475 kts | 126° |
| 2026-05-04 10:37 | -5.17548 | 111.95088 | 38867 ft | 474 kts | 126° |
| 2026-05-04 10:37 | -5.21730 | 112.00499 | 38868 ft | 473 kts | 127° |
| 2026-05-04 10:39 | -5.37144 | 112.20457 | 38870 ft | 478 kts | 127° |
| 2026-05-04 10:40 | -5.41370 | 112.25930 | 38860 ft | 478 kts | 127° |
| 2026-05-04 10:40 | -5.45908 | 112.31811 | 38862 ft | 478 kts | 127° |
| 2026-05-04 10:41 | -5.50407 | 112.37643 | 38855 ft | 478 kts | 127° |
| 2026-05-04 10:41 | -5.54909 | 112.43480 | 38851 ft | 479 kts | 127° |
| 2026-05-04 10:42 | -5.59533 | 112.49477 | 38850 ft | 479 kts | 127° |
| 2026-05-04 10:42 | -5.64112 | 112.55417 | 38849 ft | 479 kts | 127° |
| 2026-05-04 10:43 | -5.68701 | 112.61372 | 38848 ft | 480 kts | 127° |
| 2026-05-04 10:45 | -5.87433 | 112.85697 | 38871 ft | 480 kts | 127° |
| 2026-05-04 10:45 | -5.92175 | 112.91861 | 38873 ft | 480 kts | 127° |
| 2026-05-04 10:46 | -5.96833 | 112.97916 | 38869 ft | 480 kts | 127° |
| 2026-05-04 10:46 | -6.01456 | 113.03928 | 38869 ft | 479 kts | 127° |
| 2026-05-04 10:47 | -6.06041 | 113.09892 | 38868 ft | 479 kts | 127° |
| 2026-05-04 10:47 | -6.10587 | 113.15808 | 38868 ft | 480 kts | 127° |
| 2026-05-04 10:49 | -6.29667 | 113.37973 | 38871 ft | 481 kts | 144° |
| 2026-05-04 10:50 | -6.35875 | 113.42447 | 38871 ft | 481 kts | 144° |
| 2026-05-04 10:52 | -6.60321 | 113.60091 | 38870 ft | 481 kts | 144° |
| 2026-05-04 10:52 | -6.66474 | 113.64536 | 38870 ft | 480 kts | 144° |
| 2026-05-04 10:54 | -6.89424 | 113.81134 | 38896 ft | 480 kts | 144° |
| 2026-05-04 10:56 | -7.07814 | 113.97498 | 33935 ft | 479 kts | 131° |
| 2026-05-04 10:56 | -7.10235 | 114.00257 | 32945 ft | 479 kts | 131° |
| 2026-05-04 10:56 | -7.12432 | 114.02761 | 32086 ft | 479 kts | 131° |
| 2026-05-04 10:57 | -7.14730 | 114.05379 | 31180 ft | 480 kts | 131° |
| 2026-05-04 10:57 | -7.17086 | 114.08065 | 30376 ft | 478 kts | 130° |
| 2026-05-04 10:57 | -7.19490 | 114.10805 | 29849 ft | 470 kts | 130° |
| 2026-05-04 10:57 | -7.21734 | 114.13364 | 29312 ft | 464 kts | 130° |
| 2026-05-04 10:58 | -7.23947 | 114.15887 | 28739 ft | 459 kts | 130° |
| 2026-05-04 10:58 | -7.26097 | 114.18339 | 28168 ft | 454 kts | 130° |
| 2026-05-04 10:58 | -7.28260 | 114.20805 | 27593 ft | 450 kts | 130° |
| 2026-05-04 10:58 | -7.30369 | 114.23212 | 27025 ft | 446 kts | 130° |
| 2026-05-04 10:59 | -7.32472 | 114.25611 | 26452 ft | 443 kts | 130° |
| 2026-05-04 10:59 | -7.34638 | 114.28082 | 25869 ft | 439 kts | 130° |
| 2026-05-04 10:59 | -7.36788 | 114.30537 | 25265 ft | 436 kts | 130° |
| 2026-05-04 10:59 | -7.38872 | 114.32916 | 24675 ft | 433 kts | 130° |
| 2026-05-04 11:00 | -7.40978 | 114.35126 | 24103 ft | 430 kts | 137° |
| 2026-05-04 11:01 | -7.61577 | 114.38369 | 21133 ft | 432 kts | 187° |
| 2026-05-04 11:02 | -7.64835 | 114.37919 | 20741 ft | 429 kts | 187° |
| 2026-05-04 11:02 | -7.68115 | 114.37542 | 20355 ft | 426 kts | 181° |
| 2026-05-04 11:05 | -8.08908 | 114.53365 | 14717 ft | 386 kts | 155° |
| 2026-05-04 11:06 | -8.11668 | 114.54566 | 14275 ft | 384 kts | 155° |
| 2026-05-04 11:06 | -8.14475 | 114.55787 | 13820 ft | 381 kts | 155° |
| 2026-05-04 11:06 | -8.17183 | 114.56965 | 13380 ft | 378 kts | 155° |
| 2026-05-04 11:06 | -8.19873 | 114.58135 | 12950 ft | 376 kts | 155° |
| 2026-05-04 11:08 | -8.37492 | 114.65796 | 10337 ft | 334 kts | 155° |
| 2026-05-04 11:10 | -8.52175 | 114.72193 | 9901 ft | 280 kts | 155° |
| 2026-05-04 11:12 | -8.63611 | 114.80812 | 7713 ft | 281 kts | 137° |
| 2026-05-04 11:12 | -8.65145 | 114.82141 | 7371 ft | 281 kts | 137° |
| 2026-05-04 11:12 | -8.66734 | 114.83518 | 7013 ft | 280 kts | 137° |
| 2026-05-04 11:12 | -8.68317 | 114.84889 | 6861 ft | 271 kts | 137° |
| 2026-05-04 11:13 | -8.69853 | 114.86218 | 6848 ft | 257 kts | 137° |
| 2026-05-04 11:13 | -8.71284 | 114.87458 | 6843 ft | 244 kts | 137° |
| 2026-05-04 11:13 | -8.72656 | 114.88648 | 6835 ft | 232 kts | 137° |
| 2026-05-04 11:13 | -8.73973 | 114.89790 | 6835 ft | 227 kts | 137° |
| 2026-05-04 11:14 | -8.76739 | 114.91651 | 6826 ft | 233 kts | 168° |
| 2026-05-04 11:14 | -8.78466 | 114.91457 | 6777 ft | 243 kts | 201° |
| 2026-05-04 11:16 | -8.77883 | 114.81836 | 4764 ft | 235 kts | 14° |
| 2026-05-04 11:16 | -8.76385 | 114.82573 | 4470 ft | 227 kts | 47° |
| 2026-05-04 11:16 | -8.75549 | 114.83985 | 4179 ft | 223 kts | 77° |
| 2026-05-04 11:17 | -8.75434 | 114.85627 | 3904 ft | 224 kts | 90° |
| 2026-05-04 11:17 | -8.75454 | 114.87251 | 3635 ft | 225 kts | 90° |
| 2026-05-04 11:19 | -8.75514 | 114.99230 | 2774 ft | 246 kts | 90° |
| 2026-05-04 11:19 | -8.75536 | 115.01050 | 2569 ft | 239 kts | 90° |
| 2026-05-04 11:19 | -8.75492 | 115.02787 | 2380 ft | 236 kts | 87° |
| 2026-05-04 11:19 | -8.75376 | 115.04506 | 2029 ft | 226 kts | 86° |
| 2026-05-04 11:20 | -8.75266 | 115.06075 | 1630 ft | 213 kts | 87° |
| 2026-05-04 11:20 | -8.75184 | 115.07621 | 1549 ft | 198 kts | 88° |
| 2026-05-04 11:20 | -8.75141 | 115.09093 | 1290 ft | 191 kts | 88° |
| 2026-05-04 11:20 | -8.75108 | 115.10483 | 1027 ft | 175 kts | 88° |
| 2026-05-04 11:22 | -8.74775 | 115.18528 | 1262 ft | 142 kts | 89° |
| 2026-05-04 11:22 | -8.74740 | 115.19457 | 1994 ft | 131 kts | 88° |
| 2026-05-04 11:23 | -8.74892 | 115.20356 | 2674 ft | 135 kts | 121° |
| 2026-05-04 11:23 | -8.75654 | 115.21027 | 2971 ft | 141 kts | 138° |
| 2026-05-04 11:24 | -8.82972 | 115.24368 | 3005 ft | 227 kts | 191° |
| 2026-05-04 11:25 | -8.84408 | 115.23545 | 2997 ft | 245 kts | 223° |
| 2026-05-04 11:25 | -8.85260 | 115.22042 | 2992 ft | 251 kts | 255° |
| 2026-05-04 11:25 | -8.85408 | 115.20269 | 3007 ft | 254 kts | 269° |
| 2026-05-04 11:26 | -8.85411 | 115.16703 | 3007 ft | 253 kts | 270° |
| 2026-05-04 11:27 | -8.85451 | 115.03728 | 3010 ft | 254 kts | 270° |
| 2026-05-04 11:28 | -8.85452 | 115.01806 | 3010 ft | 252 kts | 270° |
| 2026-05-04 11:28 | -8.85461 | 114.99906 | 3008 ft | 251 kts | 270° |
| 2026-05-04 11:28 | -8.85475 | 114.98069 | 3009 ft | 252 kts | 270° |
| 2026-05-04 11:28 | -8.85488 | 114.96191 | 3009 ft | 252 kts | 270° |
| 2026-05-04 11:29 | -8.85501 | 114.94295 | 3010 ft | 252 kts | 270° |
| 2026-05-04 11:29 | -8.85505 | 114.92423 | 3017 ft | 253 kts | 269° |
| 2026-05-04 11:29 | -8.85497 | 114.90558 | 3015 ft | 253 kts | 270° |
| 2026-05-04 11:29 | -8.85493 | 114.88730 | 3014 ft | 251 kts | 270° |
| 2026-05-04 11:31 | -8.80864 | 114.78344 | 3009 ft | 261 kts | 338° |
| 2026-05-04 11:33 | -8.73568 | 114.69604 | 3007 ft | 246 kts | 30° |
| 2026-05-04 11:33 | -8.72280 | 114.70762 | 3009 ft | 241 kts | 59° |
| 2026-05-04 11:33 | -8.71798 | 114.72381 | 3012 ft | 243 kts | 87° |
| 2026-05-04 11:34 | -8.71928 | 114.74198 | 3020 ft | 242 kts | 99° |
| 2026-05-04 11:34 | -8.72274 | 114.75905 | 3018 ft | 239 kts | 101° |
| 2026-05-04 11:34 | -8.72641 | 114.77649 | 3020 ft | 239 kts | 101° |
| 2026-05-04 11:34 | -8.73009 | 114.79398 | 3019 ft | 239 kts | 101° |
| 2026-05-04 11:35 | -8.73376 | 114.81143 | 3017 ft | 240 kts | 101° |
| 2026-05-04 11:35 | -8.73745 | 114.82899 | 3016 ft | 239 kts | 101° |
| 2026-05-04 11:35 | -8.74111 | 114.84636 | 3017 ft | 240 kts | 101° |
| 2026-05-04 11:35 | -8.74490 | 114.86440 | 3015 ft | 242 kts | 101° |
| 2026-05-04 11:36 | -8.74864 | 114.88221 | 3014 ft | 240 kts | 101° |
| 2026-05-04 11:36 | -8.75236 | 114.89994 | 3014 ft | 239 kts | 101° |
| 2026-05-04 11:36 | -8.75728 | 114.91741 | 3007 ft | 239 kts | 116° |
| 2026-05-04 11:36 | -8.76679 | 114.93261 | 2899 ft | 230 kts | 117° |
| 2026-05-04 11:37 | -8.77366 | 114.94794 | 2920 ft | 215 kts | 105° |
| 2026-05-04 11:37 | -8.77535 | 114.96334 | 2974 ft | 196 kts | 83° |
| 2026-05-04 11:37 | -8.77120 | 114.97743 | 3008 ft | 189 kts | 61° |
| 2026-05-04 11:37 | -8.76191 | 114.98891 | 3015 ft | 183 kts | 49° |
| 2026-05-04 11:38 | -8.75439 | 114.99998 | 2841 ft | 174 kts | 72° |
| 2026-05-04 11:38 | -8.75316 | 115.01271 | 2516 ft | 167 kts | 93° |
| 2026-05-04 11:38 | -8.75386 | 115.02525 | 2220 ft | 163 kts | 90° |
| 2026-05-04 11:38 | -8.75355 | 115.03741 | 1969 ft | 158 kts | 88° |
| 2026-05-04 11:39 | -8.75319 | 115.04963 | 2017 ft | 161 kts | 89° |
| 2026-05-04 11:39 | -8.75248 | 115.06228 | 2151 ft | 173 kts | 86° |
| 2026-05-04 11:40 | -8.74968 | 115.13765 | 332 ft | 155 kts | 90° |
| 2026-05-04 11:41 | -8.74920 | 115.14864 | 119 ft | 135 kts | 89° |
| 2026-05-04 11:41 | -8.74879 | 115.15796 | 24 ft | 113 kts | 88° |
| 2026-05-04 11:41 | -8.74852 | 115.16464 | 28 ft | 77 kts | 88° |
| 2026-05-04 11:41 | -8.74793 | 115.16782 | 28 ft | 10 kts | 62° |
| 2026-05-04 11:42 | -8.74755 | 115.16840 | 29 ft | 10 kts | 40° |
| 2026-05-04 11:42 | -8.74710 | 115.16860 | 29 ft | 0 kts | 15° |
| 2026-05-04 11:42 | -8.74696 | 115.16863 | 29 ft | 3 kts | 11° |
| 2026-05-04 11:42 | -8.74661 | 115.16867 | 29 ft | 6 kts | 4° |
| 2026-05-04 11:43 | -8.74607 | 115.16868 | 29 ft | 7 kts | 358° |
| 2026-05-04 11:43 | -8.74571 | 115.16866 | 30 ft | 5 kts | 357° |
| 2026-05-04 11:43 | -8.74546 | 115.16865 | 30 ft | 0 kts | 357° |
| 2026-05-04 11:43 | -8.74543 | 115.16865 | 30 ft | 0 kts | 357° |